Stations météo

réclame
Mon MeteoGroup
Lyneham, Grande-Bretagne (3740): Température de l'air & dewpoint: 13.07.2018 18:00:00 - 19.07.2018 18:00:00 (BST)Lyneham, Grande-Bretagne (3740): Température de l'air -20cm & Température de l'air -100cm: 13.07.2018 18:00:00 - 19.07.2018 18:00:00 (BST)Lyneham, Grande-Bretagne (3740): Vitesse du vent: 13.07.2018 18:00:00 - 19.07.2018 18:00:00 (BST)Lyneham, Grande-Bretagne (3740): Direction du vent: 13.07.2018 18:00:00 - 19.07.2018 18:00:00 (BST)Lyneham, Grande-Bretagne (3740): reduced air pressure: 13.07.2018 18:00:00 - 19.07.2018 18:00:00 (BST)Lyneham, Grande-Bretagne (3740): Ensoleillement: 13.07.2018 18:00:00 - 19.07.2018 18:00:00 (BST)Lyneham, Grande-Bretagne (3740): Quantités de précipitations: 13.07.2018 18:00:00 - 19.07.2018 18:00:00 (BST)
Date & Time tt [°C] td [°C] tt -20cm [°C] tt -100cm [°C] ff [km/h] ff [knt] dd ppp [hPa] sd [min] rr [mm]
19.07.2018 18:00:00 24,5 10,7 - - 8 4 WSW 1016,6 36 0,0
19.07.2018 17:00:00 25,1 10,7 - - 5 3 W 1016,9 18 0,0
19.07.2018 16:00:00 25,2 10,5 - - 9 5 SSW 1017,3 60 0,0
19.07.2018 15:00:00 24,5 11,1 - - 9 5 W 1017,8 60 0,0
19.07.2018 14:00:00 23,8 11,0 - - 8 4 WSW 1018,2 42 0,0
19.07.2018 13:00:00 23,2 11,0 - - 5 3 WSW 1018,6 48 0,0
19.07.2018 12:00:00 22,5 10,6 - - 8 4 SSW 1018,8 60 0,0
19.07.2018 11:00:00 20,9 11,5 - - 9 5 W 1019,1 60 0,0
19.07.2018 10:00:00 19,1 12,3 16,7 16,0 4 2 WNW 1019,4 48 0,0
19.07.2018 09:00:00 17,7 12,2 - - 4 2 NNE 1019,5 48 0,0
19.07.2018 08:00:00 15,1 11,5 - - 5 3 WNW 1019,7 30 0,0
19.07.2018 07:00:00 13,9 11,6 - - 5 3 W 1019,7 0 0,0
19.07.2018 06:00:00 13,7 11,4 - - 8 4 WSW 1019,6 0 0,0
19.07.2018 05:00:00 13,6 10,9 - - 4 2 WSW 1019,5 0 0,0
19.07.2018 04:00:00 13,9 10,9 - - 4 2 WSW 1019,5 0 0,0
19.07.2018 03:00:00 14,7 11,2 - - 4 2 W 1019,5 0 0,0
19.07.2018 02:00:00 14,8 11,2 - - 8 4 W 1019,8 0 0,0
19.07.2018 01:00:00 15,3 11,3 - - 9 5 W 1019,6 - 0,0
19.07.2018 00:00:00 16,4 11,2 - - 11 6 W 1019,3 0 0,0
18.07.2018 23:00:00 17,0 11,5 - - 9 5 W 1019,3 0 0,0
18.07.2018 22:00:00 17,3 11,4 - - 9 5 W 1019,2 0 0,0
18.07.2018 21:00:00 18,9 12,2 - - 8 4 W 1018,8 0 0,0
18.07.2018 20:00:00 20,2 12,2 - - 11 6 W 1018,5 6 0,0
18.07.2018 19:00:00 20,7 12,4 - - 13 7 WNW 1018,3 0 0,0
18.07.2018 18:00:00 22,0 11,1 - - 9 5 SSW 1018,0 0 0,0
18.07.2018 17:00:00 22,0 11,2 - - 5 3 W 1018,1 0 0,0
18.07.2018 16:00:00 21,9 10,1 - - 11 6 W 1018,1 0 0,0
18.07.2018 15:00:00 21,9 9,7 - - 9 5 SW 1018,2 6 0,0
18.07.2018 14:00:00 20,9 9,8 - - 8 4 SW 1018,2 0 0,0
18.07.2018 13:00:00 21,1 11,7 - - 9 5 SSW 1018,1 0 0,0
18.07.2018 12:00:00 20,8 11,8 - - 8 4 SW 1018,3 18 0,0
18.07.2018 11:00:00 19,9 12,0 - - 11 6 SW 1018,5 42 0,0
18.07.2018 10:00:00 18,8 12,2 16,7 16,0 9 5 SW 1018,6 36 0,0
18.07.2018 09:00:00 18,2 12,3 - - 11 6 S 1018,5 36 0,0
18.07.2018 08:00:00 16,1 13,1 - - 4 2 SSW 1018,4 6 0,0
18.07.2018 07:00:00 14,7 13,0 - - 5 3 SSW 1018,2 0 0,0
18.07.2018 06:00:00 14,1 12,8 - - 8 4 S 1017,9 0 0,0
18.07.2018 05:00:00 13,9 12,3 - - 4 2 S 1017,8 0 0,0
18.07.2018 04:00:00 14,4 11,7 - - 5 3 SW 1017,7 0 0,0
18.07.2018 03:00:00 14,7 11,8 - - 5 3 SW 1017,8 0 0,0
18.07.2018 02:00:00 15,1 11,7 - - 8 4 SW 1017,8 0 0,0
18.07.2018 01:00:00 15,5 12,3 - - 5 3 WSW 1017,8 - 0,0
18.07.2018 00:00:00 15,8 12,6 - - 5 3 SW 1017,9 0 0,0
17.07.2018 23:00:00 15,8 12,3 - - 4 2 SSW 1017,8 0 0,0
17.07.2018 22:00:00 15,6 11,9 - - 5 3 SW 1017,6 0 0,0
17.07.2018 21:00:00 17,3 11,5 - - 8 4 WSW 1017,1 30 0,0
17.07.2018 20:00:00 18,8 11,6 - - 9 5 SW 1016,7 6 0,0
17.07.2018 19:00:00 19,2 11,5 - - 16 9 SW 1016,4 0 0,0
17.07.2018 18:00:00 19,8 9,7 - - 13 7 WSW 1016,3 0 0,0
17.07.2018 17:00:00 20,5 9,2 - - 16 9 WSW 1016,1 0 0,0
17.07.2018 16:00:00 20,1 9,8 - - 16 9 W 1016,3 0 0,0
17.07.2018 15:00:00 20,4 10,4 - - 15 8 WSW 1016,3 0 0,0
17.07.2018 14:00:00 19,6 9,8 - - 16 9 WSW 1016,1 6 0,0
17.07.2018 13:00:00 20,5 10,6 - - 15 8 WSW 1016,1 30 0,0
17.07.2018 12:00:00 19,5 9,7 - - 13 7 W 1016,1 24 0,0
17.07.2018 11:00:00 18,7 10,6 - - 15 8 WSW 1016,2 30 0,0
17.07.2018 10:00:00 18,0 12,4 16,7 16,0 11 6 WSW 1016,1 42 0,0
17.07.2018 09:00:00 15,9 12,9 - - 9 5 SW 1016,3 42 0,0
17.07.2018 08:00:00 15,0 12,9 - - 9 5 SSW 1016,2 60 0,0
17.07.2018 07:00:00 13,0 12,0 - - 8 4 SSW 1016,0 42 0,0
17.07.2018 06:00:00 12,1 11,2 - - 5 3 SW 1015,5 0 0,0
17.07.2018 05:00:00 11,9 10,8 - - 9 5 WSW 1015,3 0 0,0
17.07.2018 04:00:00 12,3 11,0 - - 9 5 SW 1015,2 0 0,0
17.07.2018 03:00:00 12,7 10,8 - - 8 4 SW 1015,2 0 0,0
17.07.2018 02:00:00 12,7 10,2 - - 9 5 W 1015,3 0 0,0
17.07.2018 01:00:00 12,9 10,8 - - 8 4 W 1015,4 - 0,0
17.07.2018 00:00:00 13,8 11,4 - - 15 8 W 1015,4 0 0,0
16.07.2018 23:00:00 14,0 11,0 - - 11 6 WSW 1015,1 0 0,0
16.07.2018 22:00:00 15,4 10,8 - - 16 9 W 1014,7 6 0,0
16.07.2018 21:00:00 17,2 9,1 - - 24 13 W 1014,0 60 0,0
16.07.2018 20:00:00 19,6 11,0 - - 21 11 W 1013,3 24 0,0
16.07.2018 19:00:00 19,4 14,5 - - 18 10 W 1013,1 6 0,0
16.07.2018 18:00:00 20,0 15,4 - - 21 11 W 1012,9 0 0,0
16.07.2018 17:00:00 22,6 12,9 - - 22 12 WSW 1012,4 24 0,0
16.07.2018 16:00:00 24,8 11,4 - - 15 8 WSW 1012,2 42 0,0
16.07.2018 15:00:00 25,2 12,6 - - 11 6 S 1012,7 36 0,0
16.07.2018 14:00:00 24,6 13,1 - - 9 5 SSW 1013,2 18 0,0
16.07.2018 13:00:00 22,7 14,0 - - 9 5 SSW 1013,8 0 0,0
16.07.2018 12:00:00 21,5 14,0 - - 9 5 WSW 1014,1 24 0,0
16.07.2018 11:00:00 20,9 13,9 - - 8 4 SSW 1014,2 6 0,0
16.07.2018 10:00:00 20,4 13,7 17,4 16,0 8 4 SW 1014,2 18 0,0
16.07.2018 09:00:00 18,9 13,6 - - 5 3 WSW 1014,3 36 0,0
16.07.2018 08:00:00 16,7 12,9 - - 5 3 WSW 1014,6 30 0,0
16.07.2018 07:00:00 15,9 12,3 - - 5 3 S 1014,4 6 0,0
16.07.2018 06:00:00 14,9 11,7 - - 4 2 S 1014,7 0 0,0
16.07.2018 05:00:00 15,0 11,5 - - 8 4 SW 1014,8 0 0,0
16.07.2018 04:00:00 15,4 10,8 - - 9 5 WSW 1015,0 0 0,0
16.07.2018 03:00:00 16,4 10,8 - - 8 4 WSW 1015,0 0 0,0
16.07.2018 02:00:00 16,5 11,4 - - 8 4 WSW 1015,2 0 0,0
16.07.2018 01:00:00 17,4 11,3 - - 9 5 WSW 1015,5 - 0,0
16.07.2018 00:00:00 18,6 11,0 - - 9 5 WSW 1015,4 0 0,0
15.07.2018 23:00:00 19,2 11,1 - - 11 6 W 1015,5 0 0,0
15.07.2018 22:00:00 20,2 11,5 - - 11 6 W 1015,2 0 0,0
15.07.2018 21:00:00 21,9 11,6 - - 11 6 WNW 1014,5 48 0,0
15.07.2018 20:00:00 24,1 11,7 - - 13 7 WNW 1014,2 60 0,0
15.07.2018 19:00:00 24,9 11,1 - - 9 5 NW 1014,0 60 0,0
15.07.2018 18:00:00 25,5 10,5 - - 9 5 W 1014,5 60 0,0
15.07.2018 17:00:00 25,3 9,3 - - 15 8 WNW 1014,9 60 0,0
15.07.2018 16:00:00 26,1 10,6 - - 11 6 W 1015,1 60 0,0
15.07.2018 15:00:00 25,6 11,1 - - 13 7 W 1015,3 60 0,0
15.07.2018 14:00:00 24,3 11,1 - - 9 5 SSW 1015,9 54 0,0
15.07.2018 13:00:00 24,6 12,8 - - 13 7 WSW 1016,3 54 0,0
15.07.2018 12:00:00 22,7 12,5 - - 9 5 W 1016,8 60 0,0
15.07.2018 11:00:00 21,4 13,0 - - 8 4 W 1016,9 60 0,0
15.07.2018 10:00:00 19,7 13,4 17,0 16,0 8 4 W 1017,3 60 0,0
15.07.2018 09:00:00 18,4 14,0 - - 4 2 N 1017,7 60 0,0
15.07.2018 08:00:00 15,7 14,3 - - 4 2 WSW 1017,9 60 0,0
15.07.2018 07:00:00 13,7 13,4 - - 8 4 SW 1018,0 42 0,0
15.07.2018 06:00:00 13,1 12,7 - - 5 3 WSW 1017,8 0 0,0
15.07.2018 05:00:00 13,1 12,5 - - 8 4 SW 1017,9 0 0,0
15.07.2018 04:00:00 13,7 12,5 - - 9 5 WSW 1018,1 0 0,0
15.07.2018 03:00:00 14,6 12,7 - - 5 3 SW 1018,3 0 0,0
15.07.2018 02:00:00 15,0 12,6 - - 5 3 SW 1018,4 0 0,0
15.07.2018 01:00:00 15,5 12,0 - - 4 2 SSW 1018,5 - 0,0
15.07.2018 00:00:00 16,2 12,2 - - 8 4 WSW 1018,5 0 0,0
14.07.2018 23:00:00 17,5 12,5 - - 11 6 W 1018,5 0 0,0
14.07.2018 22:00:00 18,4 11,7 - - 9 5 W 1018,5 0 0,0
14.07.2018 21:00:00 20,8 11,3 - - 11 6 W 1018,1 48 0,0
14.07.2018 20:00:00 22,9 10,7 - - 15 8 W 1017,8 60 0,0
14.07.2018 19:00:00 24,5 11,7 - - 15 8 W 1017,8 54 0,0
14.07.2018 18:00:00 23,9 11,8 - - 9 5 WSW 1018,2 54 0,0
14.07.2018 17:00:00 24,5 12,6 - - 8 4 WNW 1018,2 24 0,0
14.07.2018 16:00:00 24,2 12,5 - - 8 4 SW 1018,6 24 0,0
14.07.2018 15:00:00 24,6 12,2 - - 13 7 SW 1019,0 48 0,0
14.07.2018 14:00:00 23,9 12,6 - - 13 7 SSW 1019,6 48 0,0
14.07.2018 13:00:00 23,5 12,9 - - 11 6 S 1020,0 54 0,0
14.07.2018 12:00:00 22,8 14,0 - - 15 8 S 1020,4 60 0,0
14.07.2018 11:00:00 21,3 13,8 - - 11 6 S 1021,0 54 0,0
14.07.2018 10:00:00 20,2 16,0 16,9 16,0 8 4 S 1021,0 60 0,0
14.07.2018 09:00:00 17,3 15,2 - - 5 3 SW 1021,2 60 0,0
14.07.2018 08:00:00 15,7 14,7 - - 5 3 SW 1021,4 60 0,0
14.07.2018 07:00:00 14,3 14,1 - - 4 2 SSW 1021,2 36 0,0
14.07.2018 06:00:00 13,1 12,8 - - 2 1 WSW 1021,3 0 0,0
14.07.2018 05:00:00 13,5 13,2 - - 4 2 SW 1021,3 0 0,0
14.07.2018 04:00:00 14,1 13,9 - - 5 3 S 1021,5 0 0,0
14.07.2018 03:00:00 14,3 14,0 - - 5 3 SSW 1021,6 0 0,0
14.07.2018 02:00:00 14,9 14,5 - - 5 3 SSW 1021,7 0 0,0
14.07.2018 01:00:00 15,4 15,0 - - 8 4 SSW 1021,8 - 0,0
14.07.2018 00:00:00 15,8 15,1 - - 8 4 SSW 1021,8 0 0,0
13.07.2018 23:00:00 16,0 15,0 - - 4 2 S 1021,7 0 0,0
13.07.2018 22:00:00 16,6 15,2 - - 5 3 SW 1021,4 0 0,0
13.07.2018 21:00:00 17,2 15,2 - - 8 4 SW 1020,9 0 0,0
13.07.2018 20:00:00 17,5 14,9 - - 9 5 SW 1021,0 0 0,0
13.07.2018 19:00:00 17,4 15,5 - - 11 6 S 1021,2 0 0,0
13.07.2018 18:00:00 18,5 14,6 - - 15 8 SW 1021,5 6 0,0

tt = Température de l'air
td = dewpoint
tt -20cm = Température de l'air -20cm
tt -100cm = Température de l'air -100cm
ff = Vitesse du vent
dd = Direction du vent
ppp = reduced air pressure
sd = Ensoleillement
rr = Quantités de précipitations

stations d'obs. à proximité